createdAt,value
2019-05-20T00:00:00.132Z,7.23
2019-05-20T00:03:02.375Z,8.37
2019-05-20T00:06:04.757Z,8.70
2019-05-20T00:09:07.014Z,7.20
2019-05-20T00:12:09.353Z,6.43
2019-05-20T00:15:11.615Z,7.17
2019-05-20T00:18:13.893Z,5.70
2019-05-20T00:21:16.154Z,7.97
2019-05-20T00:24:18.497Z,7.17
2019-05-20T00:27:20.762Z,6.37
2019-05-20T00:30:23.003Z,6.83
2019-05-20T00:33:25.220Z,7.07
2019-05-20T00:36:27.552Z,7.77
2019-05-20T00:39:29.840Z,7.47
2019-05-20T00:42:32.103Z,7.63
2019-05-20T00:45:34.428Z,6.47
2019-05-20T00:48:36.727Z,6.63
2019-05-20T00:51:39.047Z,6.17
2019-05-20T00:54:41.507Z,7.37
2019-05-20T00:57:43.770Z,8.13
2019-05-20T01:00:46.083Z,5.90
2019-05-20T01:03:48.299Z,6.90
2019-05-20T01:06:50.607Z,6.57
2019-05-20T01:09:52.882Z,7.40
2019-05-20T01:12:55.191Z,6.83
2019-05-20T01:15:57.504Z,7.30
2019-05-20T01:18:59.699Z,6.47
2019-05-20T01:22:01.991Z,7.10
2019-05-20T01:25:04.413Z,6.30
2019-05-20T01:28:06.726Z,6.57
2019-05-20T01:31:09.056Z,6.97
2019-05-20T01:34:11.377Z,6.37
2019-05-20T01:37:13.636Z,6.10
2019-05-20T01:40:15.927Z,9.10
2019-05-20T01:43:18.224Z,7.30
2019-05-20T01:46:20.448Z,7.97
2019-05-20T01:49:22.727Z,7.07
2019-05-20T01:52:25.020Z,7.90
2019-05-20T01:55:27.266Z,6.83
2019-05-20T01:58:29.511Z,5.97
2019-05-20T02:01:31.780Z,6.37
2019-05-20T02:04:33.997Z,7.70
2019-05-20T02:07:36.275Z,7.33
2019-05-20T02:10:38.523Z,7.80
2019-05-20T02:13:46.407Z,8.27
2019-05-20T02:16:48.623Z,6.63
2019-05-20T02:19:50.863Z,7.70
2019-05-20T02:22:54.357Z,7.77
2019-05-20T02:25:56.597Z,8.57
2019-05-20T02:28:58.804Z,7.70
2019-05-20T02:32:01.076Z,7.93
2019-05-20T02:35:03.500Z,9.20
2019-05-20T02:38:05.738Z,9.80
2019-05-20T02:41:08.018Z,8.50
2019-05-20T02:44:10.292Z,9.10
2019-05-20T02:47:12.593Z,9.20
2019-05-20T02:50:14.854Z,9.00
2019-05-20T02:53:17.080Z,10.20
2019-05-20T02:56:19.328Z,10.47
2019-05-20T02:59:21.574Z,11.07
2019-05-20T03:02:23.837Z,11.73
2019-05-20T03:05:26.083Z,11.53
2019-05-20T03:08:28.416Z,12.27
2019-05-20T03:11:30.762Z,12.67
2019-05-20T03:14:32.955Z,13.77
2019-05-20T03:17:35.209Z,11.97
2019-05-20T03:20:37.449Z,14.33
2019-05-20T03:23:39.659Z,14.53
2019-05-20T03:26:41.895Z,13.17
2019-05-20T03:29:44.132Z,14.90
2019-05-20T03:32:46.382Z,15.03
2019-05-20T03:35:48.677Z,15.43
2019-05-20T03:38:50.913Z,15.37
2019-05-20T03:41:53.136Z,16.57
2019-05-20T03:44:55.363Z,16.83
2019-05-20T03:47:57.594Z,15.37
2019-05-20T03:50:59.831Z,17.53
2019-05-20T03:54:02.065Z,16.20
2019-05-20T03:57:04.343Z,18.93
2019-05-20T04:00:06.616Z,19.03
2019-05-20T04:03:08.877Z,19.37
2019-05-20T04:06:11.140Z,20.50
2019-05-20T04:09:13.391Z,20.07
2019-05-20T04:12:15.693Z,20.13
2019-05-20T04:15:17.949Z,20.30
2019-05-20T04:18:20.233Z,20.73
2019-05-20T04:21:22.486Z,20.73
2019-05-20T04:24:24.736Z,18.90
2019-05-20T04:27:27.029Z,21.73
2019-05-20T04:30:29.291Z,19.93
2019-05-20T04:33:31.572Z,18.63
2019-05-20T04:36:33.916Z,17.53
2019-05-20T04:39:36.199Z,18.37
2019-05-20T04:42:38.440Z,17.27
2019-05-20T04:45:40.697Z,17.70
2019-05-20T04:48:42.916Z,19.20
2019-05-20T04:51:45.226Z,22.43
2019-05-20T04:54:47.461Z,21.57
2019-05-20T04:57:49.691Z,21.53
2019-05-20T05:00:54.084Z,22.53
2019-05-20T05:03:56.321Z,18.73
2019-05-20T05:06:58.536Z,17.30
2019-05-20T05:10:00.848Z,17.80
2019-05-20T05:13:03.129Z,18.43
2019-05-20T05:16:05.413Z,18.80
2019-05-20T05:19:07.656Z,17.23
2019-05-20T05:22:09.905Z,21.70
2019-05-20T05:25:12.154Z,20.33
2019-05-20T05:28:14.443Z,17.87
2019-05-20T05:31:16.656Z,18.10
2019-05-20T05:34:18.945Z,19.73
2019-05-20T05:37:21.913Z,20.30
2019-05-20T05:40:27.755Z,22.43
2019-05-20T05:43:30.020Z,23.10
2019-05-20T05:46:32.255Z,24.97
2019-05-20T05:49:34.603Z,22.83
2019-05-20T05:52:36.875Z,23.43
2019-05-20T05:55:39.135Z,22.40
2019-05-20T05:58:41.417Z,24.03
2019-05-20T06:01:43.731Z,27.60
2019-05-20T06:04:46.042Z,22.83
2019-05-20T06:07:48.337Z,24.23
2019-05-20T06:10:50.597Z,23.50
2019-05-20T06:13:52.880Z,25.60
2019-05-20T06:16:55.166Z,27.63
2019-05-20T06:19:57.438Z,25.67
2019-05-20T06:22:59.699Z,30.03
2019-05-20T06:26:01.988Z,29.57
2019-05-20T06:29:04.229Z,28.63
2019-05-20T06:32:06.494Z,27.37
2019-05-20T06:35:08.806Z,32.00
2019-05-20T06:38:14.521Z,30.13
2019-05-20T06:41:16.777Z,24.23
2019-05-20T06:44:19.069Z,30.73
2019-05-20T06:47:21.355Z,31.97
2019-05-20T06:50:23.639Z,32.83
2019-05-20T06:53:25.957Z,29.80
2019-05-20T06:56:28.231Z,31.43
2019-05-20T06:59:30.523Z,34.47
2019-05-20T07:02:32.846Z,32.93
2019-05-20T07:05:35.180Z,34.07
2019-05-20T07:08:37.404Z,32.07
2019-05-20T07:11:39.683Z,25.83
2019-05-20T07:14:41.904Z,29.10
2019-05-20T07:17:44.143Z,32.83
2019-05-20T07:20:46.423Z,30.17
2019-05-20T07:23:52.163Z,29.90
2019-05-20T07:26:50.996Z,33.30
2019-05-20T07:29:53.209Z,33.90
2019-05-20T07:32:55.685Z,31.93
2019-05-20T07:35:57.972Z,35.97
2019-05-20T07:39:00.200Z,34.67
2019-05-20T07:42:02.473Z,35.30
2019-05-20T07:45:04.965Z,34.50
2019-05-20T07:48:07.535Z,34.50
2019-05-20T07:51:10.126Z,33.60
2019-05-20T07:54:12.518Z,37.90
2019-05-20T07:57:14.880Z,37.33
2019-05-20T08:00:17.253Z,33.67
2019-05-20T08:03:19.543Z,39.50
2019-05-20T08:06:21.867Z,34.70
2019-05-20T08:09:24.248Z,33.50
2019-05-20T08:12:26.543Z,34.83
2019-05-20T08:15:28.863Z,34.73
2019-05-20T08:18:31.119Z,33.23
2019-05-20T08:21:33.425Z,32.13
2019-05-20T08:24:35.697Z,39.20
2019-05-20T08:27:37.943Z,32.27
2019-05-20T08:30:40.227Z,34.83
2019-05-20T08:33:42.492Z,32.23
2019-05-20T08:36:44.797Z,31.40
2019-05-20T08:39:47.264Z,28.97
2019-05-20T08:42:49.480Z,30.77
2019-05-20T08:45:51.712Z,30.63
2019-05-20T08:48:53.957Z,24.90
2019-05-20T08:51:56.236Z,27.67
2019-05-20T08:54:59.894Z,27.20
2019-05-20T08:58:02.213Z,32.07
2019-05-20T09:01:04.657Z,31.97
2019-05-20T09:04:06.876Z,28.87
2019-05-20T09:07:09.415Z,27.23
2019-05-20T09:10:11.774Z,28.87
2019-05-20T09:13:14.117Z,30.27
2019-05-20T09:16:16.431Z,29.10
2019-05-20T09:19:18.716Z,30.33
2019-05-20T09:22:20.991Z,30.27
2019-05-20T09:25:29.479Z,28.40
2019-05-20T09:28:31.724Z,24.87
2019-05-20T09:31:34.069Z,27.80
2019-05-20T09:34:36.383Z,29.97
2019-05-20T09:37:38.634Z,29.53
2019-05-20T09:40:42.495Z,32.70
2019-05-20T09:43:44.773Z,30.03
2019-05-20T09:46:47.089Z,27.23
2019-05-20T09:49:49.352Z,27.37
2019-05-20T09:52:51.631Z,27.70
2019-05-20T09:55:53.945Z,26.33
2019-05-20T09:58:56.171Z,27.07
2019-05-20T10:01:58.390Z,27.27
2019-05-20T10:05:00.671Z,28.27
2019-05-20T10:08:02.916Z,30.30
2019-05-20T10:11:05.170Z,28.73
2019-05-20T10:14:07.547Z,31.20
2019-05-20T10:17:09.912Z,28.50
2019-05-20T10:20:12.203Z,29.87
2019-05-20T10:23:15.872Z,27.77
2019-05-20T10:26:16.804Z,28.07
2019-05-20T10:29:19.073Z,29.50
2019-05-20T10:32:21.344Z,30.10
2019-05-20T10:35:23.639Z,28.07
2019-05-20T10:38:25.899Z,27.63
2019-05-20T10:41:29.639Z,27.60
2019-05-20T10:44:30.481Z,26.70
2019-05-20T10:47:32.762Z,24.67
2019-05-20T10:50:35.028Z,28.17
2019-05-20T10:53:37.393Z,25.13
2019-05-20T10:56:39.691Z,27.80
2019-05-20T10:59:41.949Z,25.90
2019-05-20T11:02:44.248Z,27.80
2019-05-20T11:05:46.456Z,27.40
2019-05-20T11:08:48.691Z,29.53
2019-05-20T11:11:50.977Z,27.93
2019-05-20T11:14:53.239Z,27.60
2019-05-20T11:17:55.478Z,28.90
2019-05-20T11:20:57.765Z,28.47
2019-05-20T11:23:59.983Z,26.43
2019-05-20T11:27:02.261Z,27.77
2019-05-20T11:30:05.011Z,28.13
2019-05-20T11:33:07.219Z,28.20
2019-05-20T11:36:09.471Z,29.67
2019-05-20T11:39:11.736Z,30.97
2019-05-20T11:42:14.015Z,30.10
2019-05-20T11:45:16.320Z,28.23
2019-05-20T11:48:18.586Z,31.07
2019-05-20T11:51:20.876Z,31.83
2019-05-20T11:54:23.199Z,32.10
2019-05-20T11:57:25.517Z,30.70
2019-05-20T12:00:27.862Z,28.33
2019-05-20T12:03:30.135Z,30.77
2019-05-20T12:06:32.475Z,30.40
2019-05-20T12:09:48.212Z,29.60
2019-05-20T12:12:37.005Z,30.97
2019-05-20T12:15:39.299Z,28.83
2019-05-20T12:18:44.983Z,30.13
2019-05-20T12:21:43.991Z,30.93
2019-05-20T12:24:46.358Z,31.67
2019-05-20T12:27:48.639Z,29.07
2019-05-20T12:30:50.915Z,27.83
2019-05-20T12:33:53.227Z,27.70
2019-05-20T12:36:55.554Z,27.27
2019-05-20T12:40:06.910Z,26.53
2019-05-20T12:43:00.035Z,24.93
2019-05-20T12:46:02.323Z,20.90
2019-05-20T12:49:04.763Z,17.70
2019-05-20T12:52:06.924Z,18.73
2019-05-20T12:55:10.202Z,16.30
2019-05-20T12:58:11.528Z,14.57
2019-05-20T13:01:13.768Z,15.37
2019-05-20T13:04:16.050Z,13.00
2019-05-20T13:07:18.334Z,14.27
2019-05-20T13:10:31.694Z,14.10
2019-05-20T13:13:22.949Z,14.20
2019-05-20T13:16:25.293Z,12.70
2019-05-20T13:19:27.556Z,11.33
2019-05-20T13:22:29.842Z,10.07
2019-05-20T13:25:32.095Z,10.33
2019-05-20T13:28:34.412Z,8.80
2019-05-20T13:31:36.703Z,7.63
2019-05-20T13:34:38.984Z,7.27
2019-05-20T13:37:41.275Z,6.80
2019-05-20T13:40:46.834Z,7.13
2019-05-20T13:43:46.089Z,9.70
2019-05-20T13:46:48.420Z,13.73
2019-05-20T13:49:50.765Z,13.03
2019-05-20T13:52:53.041Z,13.00
2019-05-20T13:55:55.293Z,15.50
2019-05-20T13:58:57.561Z,14.57
2019-05-20T14:01:59.816Z,15.77
2019-05-20T14:05:02.190Z,13.43
2019-05-20T14:08:04.480Z,13.10
2019-05-20T14:11:06.726Z,14.67
2019-05-20T14:14:09.034Z,14.87
2019-05-20T14:17:11.270Z,16.53
2019-05-20T14:20:13.617Z,14.17
2019-05-20T14:23:15.899Z,16.20
2019-05-20T14:26:18.139Z,16.23
2019-05-20T14:29:20.403Z,16.27
2019-05-20T14:32:22.649Z,14.23
2019-05-20T14:35:24.964Z,15.47
2019-05-20T14:38:27.197Z,15.27
2019-05-20T14:41:29.538Z,16.60
2019-05-20T14:44:31.810Z,18.10
2019-05-20T14:47:34.094Z,17.07
2019-05-20T14:50:36.365Z,18.10
2019-05-20T14:53:38.593Z,16.63
2019-05-20T14:56:40.859Z,15.30
2019-05-20T14:59:43.090Z,16.23
2019-05-20T15:02:45.453Z,13.93
2019-05-20T15:05:47.729Z,17.40
2019-05-20T15:08:49.973Z,15.60
2019-05-20T15:11:52.247Z,15.37
2019-05-20T15:14:54.589Z,18.57
2019-05-20T15:17:56.876Z,16.20
2019-05-20T15:20:59.141Z,14.37
2019-05-20T15:24:01.616Z,15.53
2019-05-20T15:27:03.843Z,17.17
2019-05-20T15:30:06.168Z,14.53
2019-05-20T15:33:08.474Z,16.90
2019-05-20T15:36:10.718Z,14.60
2019-05-20T15:39:13.041Z,14.07
2019-05-20T15:42:15.299Z,16.80
2019-05-20T15:45:17.564Z,16.67
2019-05-20T15:48:19.851Z,14.67
2019-05-20T15:51:22.089Z,16.50
2019-05-20T15:54:24.413Z,16.63
2019-05-20T15:57:26.700Z,16.47
2019-05-20T16:00:29.021Z,17.70
2019-05-20T16:03:38.877Z,18.73
2019-05-20T16:06:41.222Z,17.20
2019-05-20T16:09:43.500Z,18.40
2019-05-20T16:12:45.747Z,13.77
2019-05-20T16:15:48.036Z,15.10
2019-05-20T16:18:50.657Z,18.07
2019-05-20T16:21:53.162Z,15.30
2019-05-20T16:24:55.388Z,13.27
2019-05-20T16:27:57.707Z,13.90
2019-05-20T16:31:00.055Z,11.97
2019-05-20T16:34:02.369Z,14.93
2019-05-20T16:37:04.699Z,14.90
2019-05-20T16:40:07.185Z,14.63
2019-05-20T16:43:09.618Z,15.33
2019-05-20T16:46:12.021Z,15.90
2019-05-20T16:49:14.284Z,13.57
2019-05-20T16:52:16.718Z,17.67
2019-05-20T16:55:19.703Z,16.60
2019-05-20T16:58:22.153Z,19.50
2019-05-20T17:01:24.397Z,15.93
2019-05-20T17:04:26.788Z,17.93
2019-05-20T17:07:29.115Z,15.23
2019-05-20T17:10:31.395Z,16.03
2019-05-20T17:13:33.641Z,16.90
2019-05-20T17:16:35.843Z,17.83
2019-05-20T17:19:38.134Z,17.10
2019-05-20T17:22:40.370Z,17.23
2019-05-20T17:25:42.704Z,17.83
2019-05-20T17:28:45.025Z,18.80
2019-05-20T17:31:53.249Z,18.13
2019-05-20T17:34:55.534Z,18.70
2019-05-20T17:37:57.789Z,19.40
2019-05-20T17:41:00.055Z,20.27
2019-05-20T17:44:02.421Z,21.93
2019-05-20T17:47:04.833Z,19.67
2019-05-20T17:50:07.154Z,21.07
2019-05-20T17:53:09.412Z,23.83
2019-05-20T17:56:11.736Z,24.03
2019-05-20T17:59:14.023Z,24.73
2019-05-20T18:02:16.300Z,25.80
2019-05-20T18:05:24.792Z,26.40
2019-05-20T18:08:30.355Z,26.10
2019-05-20T18:11:32.745Z,25.73
2019-05-20T18:14:35.010Z,27.87
2019-05-20T18:17:37.267Z,27.93
2019-05-20T18:20:39.586Z,30.03
2019-05-20T18:23:41.880Z,27.37
2019-05-20T18:26:44.302Z,28.87
2019-05-20T18:29:46.596Z,29.00
2019-05-20T18:32:48.921Z,29.57
2019-05-20T18:35:51.248Z,28.40
2019-05-20T18:38:53.449Z,30.03
2019-05-20T18:41:55.695Z,30.10
2019-05-20T18:44:58.004Z,33.23
2019-05-20T18:48:00.276Z,25.47
2019-05-20T18:51:02.583Z,28.73
2019-05-20T18:54:04.952Z,27.20
2019-05-20T18:57:07.431Z,25.50
2019-05-20T19:00:09.893Z,28.70
2019-05-20T19:03:12.191Z,25.90
2019-05-20T19:06:14.486Z,27.83
2019-05-20T19:09:16.881Z,26.70
2019-05-20T19:12:19.306Z,26.80
2019-05-20T19:15:21.676Z,27.63
2019-05-20T19:18:24.005Z,27.77
2019-05-20T19:21:26.232Z,27.07
2019-05-20T19:24:28.527Z,29.00
2019-05-20T19:27:30.759Z,29.23
2019-05-20T19:30:33.045Z,29.33
2019-05-20T19:33:35.317Z,31.23
2019-05-20T19:36:37.615Z,28.03
2019-05-20T19:39:39.819Z,27.40
2019-05-20T19:42:42.069Z,26.13
2019-05-20T19:45:44.299Z,22.83
2019-05-20T19:48:46.585Z,22.67
2019-05-20T19:51:48.899Z,20.00
2019-05-20T19:54:51.231Z,21.20
2019-05-20T19:57:54.139Z,20.20
2019-05-20T20:00:56.876Z,18.57
2019-05-20T20:03:58.776Z,17.27
2019-05-20T20:07:01.050Z,17.00
2019-05-20T20:10:03.623Z,15.87
2019-05-20T20:13:05.946Z,15.17
2019-05-20T20:16:08.340Z,16.43
2019-05-20T20:19:10.620Z,17.40
2019-05-20T20:22:12.910Z,18.30
2019-05-20T20:25:15.198Z,17.00
2019-05-20T20:28:17.408Z,17.60
2019-05-20T20:31:19.920Z,17.33
2019-05-20T20:34:22.266Z,15.40
2019-05-20T20:37:24.690Z,15.60
2019-05-20T20:40:26.927Z,13.63
2019-05-20T20:43:32.092Z,14.40
2019-05-20T20:46:31.426Z,16.17
2019-05-20T20:49:33.655Z,16.80
2019-05-20T20:52:43.531Z,18.40
2019-05-20T20:55:45.820Z,19.13
2019-05-20T20:58:48.174Z,14.80
2019-05-20T21:01:54.099Z,10.57
2019-05-20T21:04:52.781Z,8.93
2019-05-20T21:07:55.017Z,8.83
2019-05-20T21:10:57.266Z,7.97
2019-05-20T21:13:59.513Z,9.20
2019-05-20T21:17:01.789Z,11.60
2019-05-20T21:20:04.145Z,12.10
2019-05-20T21:23:06.383Z,12.03
2019-05-20T21:26:08.642Z,15.67
2019-05-20T21:29:11.859Z,21.13
2019-05-20T21:32:14.108Z,19.60
2019-05-20T21:35:16.351Z,21.23
2019-05-20T21:38:18.578Z,21.90
2019-05-20T21:41:20.861Z,19.50
2019-05-20T21:44:23.081Z,19.07
2019-05-20T21:47:26.186Z,18.63
2019-05-20T21:50:28.632Z,18.37
2019-05-20T21:53:30.879Z,17.10
2019-05-20T21:56:33.115Z,15.53
2019-05-20T21:59:35.415Z,14.53
2019-05-20T22:02:39.404Z,15.93
2019-05-20T22:05:41.860Z,14.77
2019-05-20T22:08:47.426Z,12.80
2019-05-20T22:11:49.862Z,13.70
2019-05-20T22:14:55.181Z,13.13
2019-05-20T22:18:00.944Z,12.50
2019-05-20T22:21:05.543Z,11.30
2019-05-20T22:24:09.667Z,10.27
2019-05-20T22:27:12.299Z,11.30
2019-05-20T22:30:14.619Z,12.17
2019-05-20T22:33:16.957Z,8.90
2019-05-20T22:36:19.350Z,12.07
2019-05-20T22:39:21.559Z,14.67
2019-05-20T22:42:23.788Z,13.93
2019-05-20T22:45:26.079Z,13.13
2019-05-20T22:48:28.405Z,13.93
2019-05-20T22:51:30.687Z,18.50
2019-05-20T22:54:32.945Z,18.40
2019-05-20T22:57:35.203Z,19.97
2019-05-20T23:00:37.692Z,19.50
2019-05-20T23:03:40.028Z,20.47
2019-05-20T23:06:42.315Z,20.77
2019-05-20T23:09:44.549Z,21.37
2019-05-20T23:12:46.840Z,20.47
2019-05-20T23:15:49.075Z,21.37
2019-05-20T23:18:51.329Z,25.07
2019-05-20T23:21:53.747Z,21.90
2019-05-20T23:24:56.016Z,21.27
2019-05-20T23:27:58.340Z,21.47
2019-05-20T23:31:00.602Z,20.57
2019-05-20T23:34:12.190Z,19.00
2019-05-20T23:37:05.101Z,18.33
2019-05-20T23:40:07.496Z,20.03
2019-05-20T23:43:09.759Z,19.47
2019-05-20T23:46:11.995Z,18.90
2019-05-20T23:49:14.282Z,18.13
2019-05-20T23:52:16.511Z,14.83
2019-05-20T23:55:18.771Z,12.60
2019-05-20T23:58:20.983Z,11.87
